createdAt,value
2023-03-22T00:01:18.583Z,65.53
2023-03-22T00:03:46.614Z,65.74
2023-03-22T00:06:13.640Z,65.02
2023-03-22T00:08:40.397Z,65.68
2023-03-22T00:11:07.499Z,66.27
2023-03-22T00:13:35.849Z,66.59
2023-03-22T00:16:05.177Z,66.00
2023-03-22T00:18:32.201Z,66.15
2023-03-22T00:20:59.777Z,65.72
2023-03-22T00:23:28.089Z,66.57
2023-03-22T00:25:54.994Z,66.04
2023-03-22T00:28:22.265Z,67.64
2023-03-22T00:30:58.486Z,66.94
2023-03-22T00:33:25.853Z,66.47
2023-03-22T00:35:55.026Z,66.89
2023-03-22T00:38:27.380Z,67.63
2023-03-22T00:41:24.148Z,67.34
2023-03-22T00:43:51.907Z,67.75
2023-03-22T00:46:20.785Z,68.03
2023-03-22T00:48:48.518Z,67.62
2023-03-22T00:51:15.835Z,68.39
2023-03-22T00:53:44.807Z,68.22
2023-03-22T00:56:12.773Z,68.48
2023-03-22T00:58:39.469Z,69.25
2023-03-22T01:01:06.359Z,70.25
2023-03-22T01:03:33.026Z,68.60
2023-03-22T01:05:59.957Z,69.12
2023-03-22T01:08:26.515Z,70.08
2023-03-22T01:10:53.292Z,69.95
2023-03-22T01:13:23.110Z,70.54
2023-03-22T01:15:52.744Z,69.25
2023-03-22T01:18:19.374Z,70.08
2023-03-22T01:20:45.870Z,71.17
2023-03-22T01:23:12.374Z,71.18
2023-03-22T01:25:39.133Z,70.76
2023-03-22T01:28:05.642Z,69.78
2023-03-22T01:30:32.626Z,70.37
2023-03-22T01:32:59.277Z,70.18
2023-03-22T01:35:25.833Z,70.14
2023-03-22T01:37:52.542Z,71.48
2023-03-22T01:40:19.200Z,70.75
2023-03-22T01:42:45.903Z,70.18
2023-03-22T01:45:15.496Z,70.35
2023-03-22T01:47:48.523Z,71.18
2023-03-22T01:50:16.652Z,70.36
2023-03-22T01:52:44.189Z,70.82
2023-03-22T01:55:11.594Z,70.93
2023-03-22T01:57:38.586Z,71.59
2023-03-22T02:00:07.676Z,70.68
2023-03-22T02:02:34.770Z,70.68
2023-03-22T02:05:01.575Z,70.45
2023-03-22T02:07:28.197Z,70.88
2023-03-22T02:09:54.980Z,71.35
2023-03-22T02:12:21.457Z,71.43
2023-03-22T02:15:18.628Z,70.74
2023-03-22T02:18:03.540Z,70.96
2023-03-22T02:20:42.228Z,70.99
2023-03-22T02:23:14.674Z,70.03
2023-03-22T02:26:19.686Z,69.88
2023-03-22T02:29:07.766Z,70.69
2023-03-22T02:32:04.241Z,71.44
2023-03-22T02:34:53.815Z,70.10
2023-03-22T02:37:57.996Z,70.00
2023-03-22T02:40:33.123Z,71.66
2023-03-22T02:43:14.985Z,70.86
2023-03-22T02:45:50.374Z,71.04
2023-03-22T02:48:35.825Z,70.48
2023-03-22T02:51:10.470Z,70.25
2023-03-22T02:53:46.284Z,71.88
2023-03-22T02:56:28.991Z,70.86
2023-03-22T02:58:59.191Z,71.13
2023-03-22T03:01:30.801Z,71.29
2023-03-22T03:04:01.287Z,71.49
2023-03-22T03:06:32.245Z,71.89
2023-03-22T03:08:59.788Z,71.96
2023-03-22T03:11:26.377Z,72.86
2023-03-22T03:13:52.965Z,71.63
2023-03-22T03:16:22.814Z,71.71
2023-03-22T03:19:28.810Z,71.94
2023-03-22T03:22:07.032Z,71.24
2023-03-22T03:24:44.932Z,72.53
2023-03-22T03:27:11.431Z,71.93
2023-03-22T03:30:02.872Z,73.14
2023-03-22T03:32:37.992Z,72.60
2023-03-22T03:35:10.932Z,71.76
2023-03-22T03:37:46.257Z,71.98
2023-03-22T03:40:17.445Z,72.86
2023-03-22T03:42:50.096Z,71.48
2023-03-22T03:45:18.724Z,72.14
2023-03-22T03:47:50.016Z,72.90
2023-03-22T03:50:16.906Z,71.74
2023-03-22T03:52:45.149Z,71.74
2023-03-22T03:55:13.313Z,72.56
2023-03-22T03:57:40.149Z,72.51
2023-03-22T04:00:08.092Z,72.33
2023-03-22T04:02:34.902Z,72.21
2023-03-22T04:05:01.661Z,72.01
2023-03-22T04:07:28.322Z,72.60
2023-03-22T04:09:54.868Z,73.73
2023-03-22T04:12:21.475Z,72.86
2023-03-22T04:14:47.976Z,72.78
2023-03-22T04:17:14.532Z,73.27
2023-03-22T04:19:41.055Z,73.26
2023-03-22T04:22:07.957Z,74.09
2023-03-22T04:24:34.844Z,72.63
2023-03-22T04:27:01.503Z,73.18
2023-03-22T04:29:28.033Z,74.43
2023-03-22T04:31:54.615Z,73.28
2023-03-22T04:34:21.355Z,73.49
2023-03-22T04:36:47.913Z,74.42
2023-03-22T04:39:14.501Z,72.71
2023-03-22T04:41:41.174Z,73.00
2023-03-22T04:44:08.003Z,72.11
2023-03-22T04:46:36.510Z,73.52
2023-03-22T04:49:04.788Z,73.37
2023-03-22T04:51:31.424Z,72.66
2023-03-22T04:53:58.876Z,72.48
2023-03-22T04:56:25.483Z,72.44
2023-03-22T04:58:52.166Z,71.89
2023-03-22T05:01:19.317Z,71.76
2023-03-22T05:03:47.443Z,72.18
2023-03-22T05:06:17.378Z,72.09
2023-03-22T05:08:44.170Z,71.53
2023-03-22T05:11:14.697Z,71.48
2023-03-22T05:13:41.435Z,71.06
2023-03-22T05:16:09.570Z,71.18
2023-03-22T05:18:36.701Z,69.90
2023-03-22T05:21:07.721Z,69.16
2023-03-22T05:23:34.476Z,69.11
2023-03-22T05:26:01.160Z,68.13
2023-03-22T05:28:27.700Z,70.40
2023-03-22T05:30:56.671Z,69.29
2023-03-22T05:33:23.856Z,69.26
2023-03-22T05:35:50.542Z,71.83
2023-03-22T05:38:17.305Z,70.50
2023-03-22T05:40:45.102Z,71.26
2023-03-22T05:43:11.922Z,72.34
2023-03-22T05:45:41.492Z,70.88
2023-03-22T05:48:08.659Z,69.10
2023-03-22T05:50:35.818Z,66.61
2023-03-22T05:53:02.413Z,64.59
2023-03-22T05:55:31.939Z,63.18
2023-03-22T05:57:59.478Z,61.35
2023-03-22T06:00:26.288Z,59.57
2023-03-22T06:02:52.900Z,58.85
2023-03-22T06:05:19.500Z,57.98
2023-03-22T06:07:46.189Z,58.11
2023-03-22T06:10:14.763Z,57.27
2023-03-22T06:12:41.621Z,56.98
2023-03-22T06:15:09.595Z,56.40
2023-03-22T06:17:36.313Z,55.50
2023-03-22T06:20:04.708Z,56.48
2023-03-22T06:22:31.302Z,55.79
2023-03-22T06:24:57.826Z,56.29
2023-03-22T11:16:07.810Z,18.33
2023-03-22T11:18:37.319Z,17.21
2023-03-22T11:21:10.180Z,15.93
2023-03-22T11:23:43.345Z,14.68
2023-03-22T11:26:17.051Z,14.84
2023-03-22T11:28:51.194Z,14.90
2023-03-22T11:31:24.393Z,19.39
2023-03-22T11:34:01.504Z,22.97
2023-03-22T11:36:32.537Z,24.68
2023-03-22T11:39:12.837Z,24.93
2023-03-22T11:41:41.503Z,24.77
2023-03-22T11:44:13.884Z,24.90
2023-03-22T11:47:01.042Z,25.76
2023-03-22T11:49:48.682Z,25.07
2023-03-22T11:52:25.487Z,26.02
2023-03-22T11:54:55.032Z,26.65
2023-03-22T11:57:27.694Z,26.03
2023-03-22T12:00:04.971Z,26.82
2023-03-22T12:02:36.131Z,27.00
2023-03-22T12:05:21.570Z,27.34
2023-03-22T12:07:54.736Z,27.59
2023-03-22T12:10:41.404Z,27.94
2023-03-22T12:13:26.859Z,28.67
2023-03-22T12:16:07.538Z,29.27
2023-03-22T12:19:13.400Z,30.37
2023-03-22T12:21:53.587Z,29.21
2023-03-22T12:24:35.149Z,28.99
2023-03-22T12:27:24.452Z,29.29
2023-03-22T12:30:13.890Z,29.32
2023-03-22T12:33:04.245Z,30.06
2023-03-22T12:35:37.749Z,30.25
2023-03-22T12:38:37.964Z,30.19
2023-03-22T12:41:12.848Z,30.18
2023-03-22T12:44:16.988Z,30.20
2023-03-22T12:46:59.204Z,30.48
2023-03-22T12:49:38.388Z,29.79
2023-03-22T12:52:34.803Z,31.98
2023-03-22T12:55:10.795Z,31.67
2023-03-22T12:57:37.396Z,31.20
2023-03-22T13:00:13.064Z,30.81
2023-03-22T13:02:58.408Z,31.16
2023-03-22T13:05:33.792Z,31.94
2023-03-22T13:08:03.759Z,31.34
2023-03-22T13:10:31.540Z,31.52
2023-03-22T13:13:24.542Z,32.25
2023-03-22T13:16:14.247Z,32.66
2023-03-22T13:18:43.719Z,33.59
2023-03-22T13:21:26.750Z,32.41
2023-03-22T13:23:59.318Z,32.10
2023-03-22T13:26:45.780Z,32.22
2023-03-22T13:29:18.501Z,33.04
2023-03-22T13:31:54.226Z,32.08
2023-03-22T13:34:30.892Z,32.40
2023-03-22T13:36:59.007Z,32.70
2023-03-22T13:39:31.684Z,32.83
2023-03-22T13:42:38.817Z,32.63
2023-03-22T13:45:28.212Z,33.15
2023-03-22T13:48:39.583Z,33.08
2023-03-22T13:51:22.810Z,32.92
2023-03-22T13:54:10.451Z,33.78
2023-03-22T13:56:56.503Z,32.96
2023-03-22T13:59:27.617Z,33.37
2023-03-22T14:02:15.945Z,33.14
2023-03-22T14:05:24.031Z,33.13
2023-03-22T14:07:54.857Z,33.75
2023-03-22T14:10:24.312Z,33.27
2023-03-22T14:12:53.972Z,33.99
2023-03-22T14:15:26.294Z,34.36
2023-03-22T14:18:17.709Z,33.51
2023-03-22T14:20:47.879Z,33.87
